createdAt,value
2018-03-27T00:00:15.094Z,4.66
2018-03-27T00:02:43.444Z,4.59
2018-03-27T00:05:15.663Z,4.56
2018-03-27T00:07:43.944Z,4.59
2018-03-27T00:10:12.274Z,4.57
2018-03-27T00:12:40.614Z,4.59
2018-03-27T00:15:08.942Z,4.61
2018-03-27T00:17:37.331Z,4.60
2018-03-27T00:20:05.989Z,4.55
2018-03-27T00:22:34.311Z,4.55
2018-03-27T00:25:02.727Z,4.51
2018-03-27T00:27:42.917Z,4.48
2018-03-27T00:30:23.169Z,4.47
2018-03-27T00:33:03.485Z,4.42
2018-03-27T00:35:43.605Z,4.43
2018-03-27T00:38:23.864Z,4.42
2018-03-27T00:40:51.682Z,4.32
2018-03-27T00:43:20.061Z,4.30
2018-03-27T00:45:48.442Z,4.22
2018-03-27T00:48:16.872Z,4.18
2018-03-27T00:50:45.204Z,4.14
2018-03-27T00:53:13.550Z,4.11
2018-03-27T00:55:41.888Z,4.10
2018-03-27T00:58:10.302Z,4.11
2018-03-27T01:00:41.146Z,4.08
2018-03-27T01:03:09.533Z,4.02
2018-03-27T01:05:37.936Z,3.99
2018-03-27T01:08:06.288Z,3.98
2018-03-27T01:10:34.626Z,4.01
2018-03-27T01:13:02.990Z,4.01
2018-03-27T01:15:31.388Z,3.97
2018-03-27T01:17:59.737Z,3.93
2018-03-27T01:20:28.995Z,3.91
2018-03-27T01:22:57.397Z,3.87
2018-03-27T01:25:25.782Z,3.91
2018-03-27T01:27:54.254Z,3.86
2018-03-27T01:30:22.586Z,3.88
2018-03-27T01:32:50.926Z,3.90
2018-03-27T01:35:19.253Z,3.90
2018-03-27T01:37:47.648Z,3.88
2018-03-27T01:40:16.062Z,3.93
2018-03-27T01:42:44.404Z,3.88
2018-03-27T01:45:12.748Z,3.86
2018-03-27T01:47:41.102Z,3.86
2018-03-27T01:50:09.509Z,3.90
2018-03-27T01:52:37.900Z,3.86
2018-03-27T01:55:06.301Z,3.83
2018-03-27T01:57:34.703Z,3.89
2018-03-27T02:00:03.068Z,3.83
2018-03-27T02:02:31.393Z,3.84
2018-03-27T02:04:59.744Z,3.86
2018-03-27T02:07:28.166Z,3.85
2018-03-27T02:09:56.557Z,3.86
2018-03-27T02:12:30.580Z,3.75
2018-03-27T02:15:04.524Z,3.75
2018-03-27T02:17:38.522Z,3.74
2018-03-27T02:20:12.545Z,3.71
2018-03-27T02:22:41.191Z,3.73
2018-03-27T02:25:09.640Z,3.68
2018-03-27T02:27:37.984Z,3.66
2018-03-27T02:30:06.368Z,3.64
2018-03-27T02:32:34.712Z,3.63
2018-03-27T02:35:03.057Z,3.66
2018-03-27T02:37:31.381Z,3.64
2018-03-27T02:39:59.785Z,3.63
2018-03-27T02:42:28.178Z,3.60
2018-03-27T02:44:56.519Z,3.57
2018-03-27T02:47:24.839Z,3.60
2018-03-27T02:49:53.354Z,3.61
2018-03-27T02:52:21.745Z,3.62
2018-03-27T02:54:50.139Z,3.62
2018-03-27T02:57:18.495Z,3.63
2018-03-27T02:59:46.820Z,3.62
2018-03-27T03:02:15.205Z,3.67
2018-03-27T03:04:43.536Z,3.60
2018-03-27T03:07:11.888Z,3.56
2018-03-27T03:09:40.301Z,3.57
2018-03-27T03:12:08.659Z,3.60
2018-03-27T03:14:36.996Z,3.59
2018-03-27T03:17:05.485Z,3.60
2018-03-27T03:19:33.819Z,3.65
2018-03-27T03:22:02.170Z,3.63
2018-03-27T03:24:30.498Z,3.57
2018-03-27T03:26:58.843Z,3.46
2018-03-27T03:29:27.211Z,3.47
2018-03-27T03:31:55.549Z,3.42
2018-03-27T03:34:23.887Z,3.38
2018-03-27T03:36:52.305Z,3.39
2018-03-27T03:39:20.624Z,3.37
2018-03-27T03:41:48.963Z,3.35
2018-03-27T03:44:17.297Z,3.35
2018-03-27T03:46:45.780Z,3.32
2018-03-27T03:49:14.087Z,3.31
2018-03-27T03:51:42.460Z,3.33
2018-03-27T03:54:10.846Z,3.31
2018-03-27T03:56:39.156Z,3.43
2018-03-27T03:59:08.596Z,3.34
2018-03-27T04:01:36.950Z,3.31
2018-03-27T04:04:05.289Z,3.33
2018-03-27T04:06:33.627Z,3.27
2018-03-27T04:09:01.976Z,3.29
2018-03-27T04:11:30.340Z,3.28
2018-03-27T04:13:58.917Z,3.26
2018-03-27T04:16:27.258Z,3.22
2018-03-27T04:18:55.641Z,3.20
2018-03-27T04:21:24.036Z,3.18
2018-03-27T04:23:53.076Z,3.22
2018-03-27T04:26:21.386Z,3.23
2018-03-27T04:28:49.728Z,3.20
2018-03-27T04:31:18.058Z,3.20
2018-03-27T04:33:46.453Z,3.14
2018-03-27T04:36:14.852Z,3.20
2018-03-27T04:38:43.196Z,3.15
2018-03-27T04:41:11.519Z,3.20
2018-03-27T04:43:39.897Z,3.16
2018-03-27T04:46:08.332Z,3.14
2018-03-27T04:48:36.821Z,3.05
2018-03-27T04:51:05.221Z,3.00
2018-03-27T04:53:33.611Z,2.99
2018-03-27T04:56:01.949Z,2.99
2018-03-27T04:58:30.428Z,2.93
2018-03-27T05:00:58.905Z,2.90
2018-03-27T05:03:27.235Z,4.12
2018-03-27T05:05:55.625Z,4.52
2018-03-27T05:08:24.227Z,4.72
2018-03-27T05:10:52.681Z,5.42
2018-03-27T05:13:21.091Z,5.43
2018-03-27T05:15:49.484Z,4.65
2018-03-27T05:18:17.832Z,4.06
2018-03-27T05:20:46.149Z,3.87
2018-03-27T05:23:14.611Z,3.60
2018-03-27T05:25:43.018Z,3.51
2018-03-27T05:28:11.376Z,3.46
2018-03-27T05:30:39.807Z,3.38
2018-03-27T05:33:08.178Z,3.34
2018-03-27T05:35:36.589Z,3.20
2018-03-27T05:38:04.940Z,3.28
2018-03-27T05:40:33.364Z,3.22
2018-03-27T05:43:01.787Z,3.22
2018-03-27T05:45:30.173Z,3.18
2018-03-27T05:47:58.512Z,3.13
2018-03-27T05:50:26.892Z,3.22
2018-03-27T05:52:55.242Z,3.20
2018-03-27T05:55:23.801Z,3.14
2018-03-27T05:57:52.116Z,3.15
2018-03-27T06:00:20.450Z,3.23
2018-03-27T06:02:48.805Z,3.27
2018-03-27T06:05:17.147Z,3.30
2018-03-27T06:07:45.644Z,3.36
2018-03-27T06:10:13.973Z,3.39
2018-03-27T06:12:42.317Z,3.45
2018-03-27T06:15:10.658Z,3.41
2018-03-27T06:17:38.998Z,3.56
2018-03-27T06:20:07.377Z,3.51
2018-03-27T06:22:35.734Z,3.53
2018-03-27T06:25:04.091Z,3.50
2018-03-27T06:27:32.444Z,3.68
2018-03-27T06:30:00.766Z,3.62
2018-03-27T06:32:29.117Z,3.66
2018-03-27T06:34:57.487Z,3.78
2018-03-27T06:37:25.849Z,3.95
2018-03-27T06:39:54.173Z,3.96
2018-03-27T06:42:22.514Z,3.95
2018-03-27T06:44:50.865Z,3.91
2018-03-27T06:47:19.227Z,3.91
2018-03-27T06:49:47.651Z,3.98
2018-03-27T06:52:17.102Z,4.23
2018-03-27T06:54:45.457Z,4.47
2018-03-27T06:57:13.808Z,4.33
2018-03-27T06:59:42.135Z,4.28
2018-03-27T07:02:10.493Z,4.44
2018-03-27T07:04:38.878Z,4.53
2018-03-27T07:07:07.217Z,4.63
2018-03-27T07:09:35.666Z,4.67
2018-03-27T07:12:04.031Z,4.50
2018-03-27T07:14:32.446Z,4.62
2018-03-27T07:17:00.815Z,4.84
2018-03-27T07:19:29.187Z,4.72
2018-03-27T07:21:57.580Z,4.55
2018-03-27T07:24:25.952Z,4.60
2018-03-27T07:26:54.333Z,4.75
2018-03-27T07:29:22.671Z,4.93
2018-03-27T07:31:50.995Z,4.95
2018-03-27T07:34:19.333Z,5.03
2018-03-27T07:36:47.722Z,5.13
2018-03-27T07:39:16.092Z,5.15
2018-03-27T07:41:44.419Z,5.00
2018-03-27T07:44:12.789Z,4.80
2018-03-27T07:46:41.127Z,4.96
2018-03-27T07:49:09.484Z,5.08
2018-03-27T07:51:37.822Z,4.99
2018-03-27T07:54:06.317Z,5.20
2018-03-27T07:56:34.691Z,5.39
2018-03-27T07:59:03.034Z,5.40
2018-03-27T08:01:31.380Z,5.46
2018-03-27T08:03:59.746Z,5.76
2018-03-27T08:06:28.116Z,5.74
2018-03-27T08:08:56.513Z,6.10
2018-03-27T08:11:24.912Z,6.24
2018-03-27T08:13:53.267Z,6.08
2018-03-27T08:16:21.619Z,5.81
2018-03-27T08:18:49.981Z,5.89
2018-03-27T08:21:18.381Z,5.70
2018-03-27T08:23:46.804Z,5.58
2018-03-27T08:26:15.114Z,5.59
2018-03-27T08:28:43.447Z,5.60
2018-03-27T08:31:12.150Z,5.56
2018-03-27T08:33:40.541Z,5.52
2018-03-27T08:36:08.890Z,5.67
2018-03-27T08:38:37.245Z,5.86
2018-03-27T08:41:05.572Z,5.73
2018-03-27T08:43:33.996Z,5.76
2018-03-27T08:46:02.323Z,5.78
2018-03-27T08:48:30.660Z,5.84
2018-03-27T08:50:59.079Z,6.43
2018-03-27T08:53:27.393Z,6.71
2018-03-27T08:55:55.736Z,7.11
2018-03-27T08:58:24.161Z,8.25
2018-03-27T09:00:52.486Z,9.61
2018-03-27T09:03:20.953Z,11.03
2018-03-27T09:05:49.338Z,11.11
2018-03-27T09:08:17.674Z,9.78
2018-03-27T09:10:46.056Z,9.68
2018-03-27T09:13:14.402Z,11.12
2018-03-27T09:15:42.759Z,13.06
2018-03-27T09:18:11.115Z,13.95
2018-03-27T09:20:39.456Z,13.18
2018-03-27T09:23:07.888Z,12.47
2018-03-27T09:25:36.228Z,11.91
2018-03-27T09:28:04.564Z,10.83
2018-03-27T09:30:32.933Z,10.80
2018-03-27T09:33:01.267Z,11.16
2018-03-27T09:35:29.977Z,12.27
2018-03-27T09:37:58.376Z,11.77
2018-03-27T09:40:26.751Z,12.09
2018-03-27T09:42:56.131Z,12.97
2018-03-27T09:45:24.471Z,14.08
2018-03-27T09:47:52.841Z,14.49
2018-03-27T09:50:21.341Z,14.32
2018-03-27T09:52:49.667Z,13.79
2018-03-27T09:55:18.795Z,12.95
2018-03-27T09:57:47.162Z,12.17
2018-03-27T10:00:15.520Z,11.52
2018-03-27T10:02:44.055Z,10.65
2018-03-27T10:05:12.405Z,10.07
2018-03-27T10:07:40.746Z,9.70
2018-03-27T10:10:09.093Z,9.33
2018-03-27T10:12:37.420Z,9.77
2018-03-27T10:15:05.776Z,11.37
2018-03-27T10:17:34.145Z,12.02
2018-03-27T10:20:02.501Z,13.90
2018-03-27T10:22:30.928Z,15.16
2018-03-27T10:24:59.268Z,14.48
2018-03-27T10:27:27.613Z,13.85
2018-03-27T10:29:55.948Z,12.81
2018-03-27T10:32:24.418Z,11.45
2018-03-27T10:34:52.775Z,11.71
2018-03-27T10:37:21.115Z,12.20
2018-03-27T10:39:49.502Z,11.96
2018-03-27T10:42:17.869Z,12.30
2018-03-27T10:44:46.224Z,14.21
2018-03-27T10:47:14.626Z,15.18
2018-03-27T10:49:43.009Z,14.24
2018-03-27T10:52:11.341Z,13.13
2018-03-27T10:54:39.734Z,12.97
2018-03-27T10:57:08.084Z,11.93
2018-03-27T10:59:36.419Z,11.99
2018-03-27T11:02:04.761Z,13.34
2018-03-27T11:04:33.114Z,13.93
2018-03-27T11:07:01.456Z,13.84
2018-03-27T11:09:29.794Z,13.61
2018-03-27T11:11:58.141Z,11.73
2018-03-27T11:14:26.557Z,10.92
2018-03-27T11:16:55.084Z,10.28
2018-03-27T11:19:23.414Z,10.35
2018-03-27T11:21:51.771Z,10.54
2018-03-27T11:24:20.142Z,10.97
2018-03-27T11:26:48.480Z,12.12
2018-03-27T11:29:17.166Z,11.76
2018-03-27T11:31:45.563Z,10.80
2018-03-27T11:34:13.910Z,11.27
2018-03-27T11:36:42.281Z,12.60
2018-03-27T11:39:11.142Z,13.49
2018-03-27T11:41:39.751Z,13.94
2018-03-27T11:44:08.135Z,13.96
2018-03-27T11:46:36.454Z,14.24
2018-03-27T11:49:04.788Z,14.36
2018-03-27T11:51:33.130Z,14.95
2018-03-27T11:54:01.456Z,14.87
2018-03-27T11:56:29.784Z,14.96
2018-03-27T11:58:58.142Z,14.84
2018-03-27T12:01:26.465Z,14.70
2018-03-27T12:03:55.556Z,14.71
2018-03-27T12:06:23.899Z,15.09
2018-03-27T12:08:52.234Z,15.54
2018-03-27T12:11:20.553Z,15.69
2018-03-27T12:13:48.946Z,16.01
2018-03-27T12:16:17.289Z,14.12
2018-03-27T12:18:45.678Z,12.60
2018-03-27T12:21:14.036Z,11.77
2018-03-27T12:23:42.398Z,12.15
2018-03-27T12:26:10.732Z,12.32
2018-03-27T12:28:39.093Z,13.21
2018-03-27T12:31:07.528Z,13.63
2018-03-27T12:33:35.897Z,13.92
2018-03-27T12:36:04.222Z,14.11
2018-03-27T12:38:32.608Z,13.09
2018-03-27T12:41:00.967Z,12.41
2018-03-27T12:43:29.734Z,12.38
2018-03-27T12:45:58.065Z,13.19
2018-03-27T12:48:26.510Z,14.37
2018-03-27T12:50:54.935Z,14.65
2018-03-27T12:53:23.254Z,14.39
2018-03-27T12:55:51.596Z,14.66
2018-03-27T12:58:19.929Z,15.06
2018-03-27T13:00:48.324Z,15.31
2018-03-27T13:03:16.639Z,16.54
2018-03-27T13:05:45.038Z,15.73
2018-03-27T13:08:13.360Z,15.17
2018-03-27T13:10:41.697Z,15.46
2018-03-27T13:13:10.014Z,15.43
2018-03-27T13:15:38.373Z,15.51
2018-03-27T13:18:06.994Z,15.50
2018-03-27T13:20:35.328Z,15.14
2018-03-27T13:23:03.695Z,15.68
2018-03-27T13:25:32.056Z,15.54
2018-03-27T13:28:00.398Z,15.38
2018-03-27T13:30:28.718Z,15.81
2018-03-27T13:32:57.076Z,16.86
2018-03-27T13:35:25.441Z,16.79
2018-03-27T13:37:53.861Z,16.74
2018-03-27T13:40:22.201Z,16.79
2018-03-27T13:42:50.531Z,16.27
2018-03-27T13:45:18.938Z,16.48
2018-03-27T13:47:47.289Z,16.61
2018-03-27T13:50:15.597Z,16.88
2018-03-27T13:52:43.943Z,17.31
2018-03-27T13:55:12.272Z,16.62
2018-03-27T13:57:40.665Z,16.70
2018-03-27T14:00:09.018Z,16.41
2018-03-27T14:02:37.411Z,15.87
2018-03-27T14:05:05.742Z,15.87
2018-03-27T14:07:34.128Z,14.84
2018-03-27T14:10:02.456Z,14.97
2018-03-27T14:12:30.778Z,14.60
2018-03-27T14:14:59.157Z,15.20
2018-03-27T14:17:27.459Z,15.33
2018-03-27T14:19:56.151Z,15.73
2018-03-27T14:22:24.500Z,15.88
2018-03-27T14:24:52.840Z,15.31
2018-03-27T14:27:21.155Z,15.29
2018-03-27T14:29:49.493Z,15.14
2018-03-27T14:32:17.842Z,14.53
2018-03-27T14:34:46.173Z,14.37
2018-03-27T14:37:14.505Z,14.59
2018-03-27T14:39:42.887Z,14.75
2018-03-27T14:42:11.300Z,14.83
2018-03-27T14:44:39.624Z,14.72
2018-03-27T14:47:07.980Z,14.66
2018-03-27T14:49:36.306Z,14.56
2018-03-27T14:52:04.647Z,14.26
2018-03-27T14:54:33.000Z,14.76
2018-03-27T14:57:01.426Z,13.95
2018-03-27T14:59:29.780Z,14.29
2018-03-27T15:01:58.319Z,13.83
2018-03-27T15:04:26.650Z,13.95
2018-03-27T15:06:55.187Z,14.00
2018-03-27T15:09:23.537Z,13.94
2018-03-27T15:11:51.877Z,13.56
2018-03-27T15:14:20.211Z,13.31
2018-03-27T15:16:48.522Z,12.90
2018-03-27T15:19:16.862Z,12.51
2018-03-27T15:21:45.206Z,12.80
2018-03-27T15:24:13.554Z,12.81
2018-03-27T15:26:41.983Z,12.46
2018-03-27T15:29:10.337Z,12.73
2018-03-27T15:31:38.733Z,12.78
2018-03-27T15:34:07.286Z,12.44
2018-03-27T15:36:35.600Z,12.58
2018-03-27T15:39:03.996Z,12.50
2018-03-27T15:41:32.404Z,12.29
2018-03-27T15:44:00.751Z,12.18
2018-03-27T15:46:29.111Z,12.10
2018-03-27T15:48:57.494Z,12.20
2018-03-27T15:51:25.911Z,12.29
2018-03-27T15:53:54.248Z,12.08
2018-03-27T15:56:22.652Z,11.67
2018-03-27T15:58:50.978Z,11.72
2018-03-27T16:01:19.392Z,11.58
2018-03-27T16:03:47.723Z,11.47
2018-03-27T16:06:16.085Z,11.17
2018-03-27T16:08:44.437Z,11.13
2018-03-27T16:11:12.762Z,11.23
2018-03-27T16:13:41.297Z,11.26
2018-03-27T16:16:09.737Z,11.04
2018-03-27T16:18:38.109Z,10.68
2018-03-27T16:21:06.886Z,10.66
2018-03-27T16:23:35.456Z,10.62
2018-03-27T16:26:03.843Z,10.37
2018-03-27T16:28:32.145Z,9.96
2018-03-27T16:31:00.474Z,9.86
2018-03-27T16:33:28.810Z,9.84
2018-03-27T16:35:57.314Z,9.57
2018-03-27T16:38:25.688Z,9.44
2018-03-27T16:40:54.003Z,9.30
2018-03-27T16:43:22.317Z,9.22
2018-03-27T16:45:50.654Z,9.10
2018-03-27T16:48:19.040Z,8.94
2018-03-27T16:50:47.648Z,8.84
2018-03-27T16:53:15.964Z,8.86
2018-03-27T16:55:44.268Z,8.73
2018-03-27T16:58:12.594Z,8.48
2018-03-27T17:00:40.903Z,8.39
2018-03-27T17:03:09.226Z,8.10
2018-03-27T17:05:37.541Z,8.01
2018-03-27T17:08:05.885Z,8.02
2018-03-27T17:10:34.269Z,7.89
2018-03-27T17:13:02.599Z,7.82
2018-03-27T17:15:30.928Z,7.78
2018-03-27T17:17:59.275Z,7.59
2018-03-27T17:20:27.584Z,7.48
2018-03-27T17:22:56.070Z,7.35
2018-03-27T17:25:24.413Z,7.28
2018-03-27T17:27:52.810Z,7.13
2018-03-27T17:30:21.208Z,7.00
2018-03-27T17:32:49.708Z,6.98
2018-03-27T17:35:18.017Z,6.93
2018-03-27T17:37:46.347Z,6.87
2018-03-27T17:40:14.688Z,6.72
2018-03-27T17:42:43.021Z,6.54
2018-03-27T17:45:11.521Z,6.42
2018-03-27T17:47:39.836Z,6.27
2018-03-27T17:50:08.247Z,6.17
2018-03-27T17:52:36.588Z,6.00
2018-03-27T17:55:04.914Z,5.87
2018-03-27T17:57:33.236Z,5.75
2018-03-27T18:00:01.832Z,5.56
2018-03-27T18:02:30.188Z,5.55
2018-03-27T18:04:58.585Z,5.55
2018-03-27T18:07:26.964Z,5.51
2018-03-27T18:09:55.309Z,5.42
2018-03-27T18:12:23.757Z,5.42
2018-03-27T18:14:52.217Z,5.45
2018-03-27T18:17:20.590Z,5.57
2018-03-27T18:19:49.046Z,5.51
2018-03-27T18:22:17.369Z,5.44
2018-03-27T18:24:45.755Z,5.38
2018-03-27T18:27:14.115Z,5.29
2018-03-27T18:29:42.484Z,5.23
2018-03-27T18:32:10.798Z,5.22
2018-03-27T18:34:39.137Z,5.17
2018-03-27T18:37:07.557Z,5.13
2018-03-27T18:39:36.191Z,5.07
2018-03-27T18:42:04.506Z,5.02
2018-03-27T18:44:32.842Z,4.99
2018-03-27T18:47:01.171Z,5.01
2018-03-27T18:49:29.507Z,4.99
2018-03-27T18:51:57.883Z,5.00
2018-03-27T18:54:26.193Z,4.95
2018-03-27T18:56:54.522Z,4.98
2018-03-27T18:59:22.883Z,5.08
2018-03-27T19:01:51.218Z,5.20
2018-03-27T19:04:19.530Z,5.15
2018-03-27T19:06:47.876Z,5.20
2018-03-27T19:09:16.206Z,5.14
2018-03-27T19:11:44.546Z,5.20
2018-03-27T19:14:12.856Z,5.22
2018-03-27T19:16:41.185Z,5.28
2018-03-27T19:19:09.498Z,5.31
2018-03-27T19:21:37.917Z,5.34
2018-03-27T19:24:06.308Z,5.37
2018-03-27T19:26:34.703Z,5.36
2018-03-27T19:29:03.046Z,5.36
2018-03-27T19:31:31.394Z,5.36
2018-03-27T19:33:59.727Z,5.40
2018-03-27T19:36:28.069Z,5.36
2018-03-27T19:38:56.390Z,5.37
2018-03-27T19:41:24.746Z,5.35
2018-03-27T19:43:53.087Z,5.33
2018-03-27T19:46:21.458Z,5.32
2018-03-27T19:48:49.841Z,5.26
2018-03-27T19:51:18.221Z,5.25
2018-03-27T19:53:46.626Z,5.27
2018-03-27T19:56:15.064Z,5.21
2018-03-27T19:58:43.401Z,5.15
2018-03-27T20:01:11.736Z,5.12
2018-03-27T20:03:40.071Z,5.03
2018-03-27T20:06:08.413Z,4.94
2018-03-27T20:08:36.763Z,4.91
2018-03-27T20:11:05.153Z,4.88
2018-03-27T20:13:33.497Z,4.85
2018-03-27T20:16:02.035Z,4.75
2018-03-27T20:18:30.334Z,4.82
2018-03-27T20:20:58.667Z,4.82
2018-03-27T20:23:27.015Z,4.90
2018-03-27T20:25:55.449Z,4.90
2018-03-27T20:28:23.812Z,4.93
2018-03-27T20:30:52.136Z,4.95
2018-03-27T20:33:20.490Z,4.93
2018-03-27T20:35:48.854Z,4.97
2018-03-27T20:38:17.224Z,5.02
2018-03-27T20:40:45.680Z,4.97
2018-03-27T20:43:14.069Z,4.98
2018-03-27T20:45:42.430Z,4.98
2018-03-27T20:48:10.782Z,4.95
2018-03-27T20:50:39.104Z,4.96
2018-03-27T20:53:07.451Z,4.93
2018-03-27T20:55:35.814Z,4.99
2018-03-27T20:58:04.349Z,5.00
2018-03-27T21:00:32.699Z,5.05
2018-03-27T21:03:01.110Z,5.02
2018-03-27T21:05:29.498Z,5.02
2018-03-27T21:07:57.891Z,5.07
2018-03-27T21:10:26.213Z,5.03
2018-03-27T21:12:54.593Z,5.04
2018-03-27T21:15:23.111Z,5.02
2018-03-27T21:17:51.432Z,4.95
2018-03-27T21:20:20.424Z,4.91
2018-03-27T21:22:48.761Z,4.94
2018-03-27T21:25:17.088Z,4.88
2018-03-27T21:27:45.681Z,4.81
2018-03-27T21:30:14.816Z,4.81
2018-03-27T21:32:43.175Z,4.79
2018-03-27T21:35:11.496Z,4.77
2018-03-27T21:37:39.820Z,4.71
2018-03-27T21:40:08.213Z,4.65
2018-03-27T21:42:36.533Z,4.71
2018-03-27T21:45:04.870Z,4.76
2018-03-27T21:47:33.262Z,4.74
2018-03-27T21:50:01.600Z,4.73
2018-03-27T21:52:29.952Z,4.75
2018-03-27T21:54:58.334Z,4.80
2018-03-27T21:57:26.695Z,4.77
2018-03-27T21:59:55.009Z,4.74
2018-03-27T22:02:23.444Z,4.69
2018-03-27T22:04:51.769Z,4.70
2018-03-27T22:07:20.122Z,4.60
2018-03-27T22:09:48.659Z,4.61
2018-03-27T22:12:17.150Z,4.61
2018-03-27T22:14:45.598Z,4.57
2018-03-27T22:17:13.994Z,4.52
2018-03-27T22:19:42.321Z,4.48
2018-03-27T22:22:10.709Z,4.52
2018-03-27T22:24:39.052Z,4.49
2018-03-27T22:27:07.447Z,4.45
2018-03-27T22:29:35.777Z,4.42
2018-03-27T22:32:04.121Z,4.48
2018-03-27T22:34:32.518Z,4.45
2018-03-27T22:37:00.925Z,4.50
2018-03-27T22:39:29.268Z,4.55
2018-03-27T22:41:57.640Z,4.59
2018-03-27T22:44:25.988Z,4.58
2018-03-27T22:46:54.419Z,4.59
2018-03-27T22:49:22.859Z,4.59
2018-03-27T22:51:51.159Z,4.61
2018-03-27T22:54:19.562Z,4.61
2018-03-27T22:56:48.000Z,4.66
2018-03-27T22:59:16.328Z,4.70
2018-03-27T23:01:44.681Z,4.69
2018-03-27T23:04:13.016Z,4.72
2018-03-27T23:06:41.356Z,4.73
2018-03-27T23:09:09.719Z,4.75
2018-03-27T23:11:38.049Z,4.76
2018-03-27T23:14:06.368Z,4.77
2018-03-27T23:16:35.072Z,4.78
2018-03-27T23:19:03.470Z,4.84
2018-03-27T23:21:31.853Z,4.84
2018-03-27T23:24:00.178Z,4.88
2018-03-27T23:26:28.754Z,4.91
2018-03-27T23:28:57.114Z,4.98
2018-03-27T23:31:25.445Z,4.98
2018-03-27T23:33:53.773Z,4.97
2018-03-27T23:36:22.104Z,5.00
2018-03-27T23:38:50.441Z,5.03
2018-03-27T23:41:18.788Z,5.05
2018-03-27T23:43:47.138Z,4.98
2018-03-27T23:46:15.484Z,5.09
2018-03-27T23:48:43.797Z,5.08
2018-03-27T23:51:12.147Z,5.08
2018-03-27T23:53:40.548Z,5.04
2018-03-27T23:56:08.888Z,5.04
2018-03-27T23:58:37.242Z,4.97
